createdAt,value
2019-02-10T00:02:45.039Z,83.51
2019-02-10T00:03:33.292Z,83.61
2019-02-10T00:06:02.736Z,83.98
2019-02-10T00:06:51.059Z,84.56
2019-02-10T00:07:44.679Z,84.65
2019-02-10T00:08:33.200Z,85.32
2019-02-10T00:09:13.622Z,84.84
2019-02-10T00:09:54.022Z,85.22
2019-02-10T00:10:34.399Z,85.6
2019-02-10T00:11:14.848Z,85.32
2019-02-10T00:11:55.246Z,85.51
2019-02-10T00:12:35.724Z,85.75
2019-02-10T00:13:18.399Z,85.94
2019-02-10T00:14:06.079Z,86.42
2019-02-10T00:14:50.247Z,86.7
2019-02-10T00:15:31.308Z,86.55
2019-02-10T00:16:19.393Z,86.55
2019-02-10T00:17:00.359Z,86.18
2019-02-10T00:17:44.244Z,86.46
2019-02-10T00:23:18.611Z,86.65
2019-02-10T00:24:19.886Z,87.27
2019-02-10T00:25:25.055Z,87.56
2019-02-10T00:28:15.978Z,88.23
2019-02-10T00:29:07.532Z,88.79
2019-02-10T00:39:15.305Z,89.56
2019-02-10T00:41:38.979Z,90.61
2019-02-10T00:42:32.007Z,90.7
2019-02-10T00:43:25.494Z,91.27
2019-02-10T00:44:16.867Z,90.42
2019-02-10T00:45:11.058Z,91.56
2019-02-10T00:50:20.031Z,92.32
2019-02-10T00:54:34.034Z,92.79
2019-02-10T00:55:16.964Z,92.89
2019-02-10T00:59:23.798Z,92.6
2019-02-10T01:00:05.334Z,92.89
2019-02-10T01:00:48.812Z,92.79
2019-02-10T01:01:29.696Z,92.7
2019-02-10T01:02:10.758Z,92.32
2019-02-10T01:02:51.660Z,92.41
2019-02-10T01:03:33.044Z,92.51
2019-02-10T01:04:13.664Z,92.03
2019-02-10T01:04:55.468Z,92.32
2019-02-10T01:05:35.763Z,92.32
2019-02-10T01:06:16.246Z,91.75
2019-02-10T01:06:56.655Z,91.94
2019-02-10T01:07:38.244Z,92.13
2019-02-10T01:09:38.437Z,92.41
2019-02-10T01:10:30.178Z,91.46
2019-02-10T01:12:27.748Z,91.56
2019-02-10T01:13:13.185Z,91.56
2019-02-10T01:13:56.601Z,91.17
2019-02-10T01:16:23.681Z,91.17
2019-02-10T01:17:17.185Z,91.17
2019-02-10T01:19:11.321Z,90.61
2019-02-10T01:21:19.980Z,91.46
2019-02-10T01:22:13.015Z,90.8
2019-02-10T01:23:00.429Z,90.7
2019-02-10T01:23:51.925Z,90.51
2019-02-10T01:25:57.428Z,89.79
2019-02-10T01:31:35.671Z,90.56
2019-02-10T01:32:26.702Z,90.36
2019-02-10T01:33:19.421Z,90.65
2019-02-10T01:34:09.968Z,90.56
2019-02-10T01:34:59.114Z,90.65
2019-02-10T01:39:49.054Z,91.17
2019-02-10T01:40:30.007Z,90.99
2019-02-10T01:41:10.598Z,91.65
2019-02-10T01:41:51.089Z,92.03
2019-02-10T01:42:31.544Z,92.32
2019-02-10T01:43:11.850Z,92.41
2019-02-10T01:43:52.328Z,92.79
2019-02-10T01:44:33.069Z,92.6
2019-02-10T01:45:13.434Z,92.99
2019-02-10T01:45:53.845Z,93.37
2019-02-10T01:46:34.259Z,93.74
2019-02-10T01:47:14.640Z,93.94
2019-02-10T01:47:55.373Z,94.03
2019-02-10T01:48:36.051Z,94.22
2019-02-10T01:49:16.431Z,94.37
2019-02-10T01:49:56.848Z,94.84
2019-02-10T01:50:37.245Z,95.03
2019-02-10T01:51:18.116Z,94.93
2019-02-10T01:51:58.479Z,95.03
2019-02-10T01:52:38.988Z,95.12
2019-02-10T01:53:19.440Z,95.03
2019-02-10T01:54:00.054Z,94.74
2019-02-10T01:54:43.022Z,94.84
2019-02-10T01:55:24.220Z,94.93
2019-02-10T01:56:05.849Z,94.74
2019-02-10T01:56:46.521Z,95.22
2019-02-10T01:57:27.115Z,95.03
2019-02-10T01:58:13.295Z,95.22
2019-02-10T01:58:53.948Z,94.56
2019-02-10T01:59:35.473Z,94.56
2019-02-10T02:00:17.442Z,94.46
2019-02-10T02:00:58.506Z,94.46
2019-02-10T02:01:39.475Z,94.27
2019-02-10T02:02:19.859Z,93.7
2019-02-10T02:03:00.287Z,93.79
2019-02-10T02:03:40.710Z,93.6
2019-02-10T02:04:21.729Z,93.74
2019-02-10T02:05:02.518Z,93.08
2019-02-10T02:05:45.908Z,93.18
2019-02-10T02:06:27.657Z,93.51
2019-02-10T02:07:07.895Z,93.37
2019-02-10T02:07:49.682Z,93.94
2019-02-10T02:08:33.317Z,93.7
2019-02-10T02:09:14.133Z,94.42
2019-02-10T02:09:55.002Z,94.22
2019-02-10T02:10:35.788Z,94.42
2019-02-10T02:11:16.942Z,94.42
2019-02-10T02:11:58.230Z,93.55
2019-02-10T02:12:38.985Z,93.46
2019-02-10T02:13:22.183Z,93.6
2019-02-10T02:14:03.721Z,93.84
2019-02-10T02:14:44.777Z,93.74
2019-02-10T02:15:25.461Z,94.03
2019-02-10T02:16:07.017Z,94.03
2019-02-10T02:16:52.869Z,94.13
2019-02-10T02:17:33.800Z,93.94
2019-02-10T02:20:34.318Z,95.03
2019-02-10T02:22:30.554Z,95.41
2019-02-10T02:23:22.500Z,95.03
2019-02-10T02:24:12.216Z,95.79
2019-02-10T02:25:08.074Z,95.12
2019-02-10T02:29:19.225Z,97.69
2019-02-10T02:30:01.174Z,96.55
2019-02-10T02:30:41.658Z,96.17
2019-02-10T02:31:24.080Z,97.41
2019-02-10T02:32:09.257Z,97.98
2019-02-10T02:32:50.530Z,97.41
2019-02-10T02:33:37.156Z,98.74
2019-02-10T02:34:17.851Z,98.46
2019-02-10T02:35:01.706Z,98.74
2019-02-10T02:35:43.931Z,98.83
2019-02-10T02:36:25.426Z,99.31
2019-02-10T02:37:08.565Z,99.99
2019-02-10T02:37:59.526Z,99.79
2019-02-10T02:38:40.515Z,99.88
2019-02-10T02:39:23.398Z,99.99
2019-02-10T02:40:05.526Z,99.99
2019-02-10T02:40:45.989Z,99.99
2019-02-10T02:41:30.596Z,99.99
2019-02-10T02:42:11.864Z,99.99
2019-02-10T02:42:51.889Z,99.99
2019-02-10T02:43:35.167Z,99.99
2019-02-10T02:44:15.586Z,99.88
2019-02-10T02:45:00.233Z,99.99
2019-02-10T02:45:40.386Z,99.99
2019-02-10T02:46:20.882Z,99.99
2019-02-10T02:47:02.376Z,99.99
2019-02-10T02:47:43.045Z,99.99
2019-02-10T02:48:25.144Z,99.99
2019-02-10T02:49:05.663Z,99.99
2019-02-10T02:49:47.792Z,99.99
2019-02-10T02:50:29.689Z,99.99
2019-02-10T02:51:13.941Z,99.99
2019-02-10T03:01:30.693Z,99.99
2019-02-10T03:02:11.677Z,99.99
2019-02-10T03:02:55.761Z,99.99
2019-02-10T03:03:36.031Z,99.99
2019-02-10T03:04:21.446Z,99.99
2019-02-10T03:05:01.785Z,99.99
2019-02-10T03:05:44.770Z,99.99
2019-02-10T03:06:27.077Z,99.99
2019-02-10T03:07:17.683Z,99.99
2019-02-10T03:07:51.790Z,99.99
2019-02-10T03:08:32.202Z,99.99
2019-02-10T03:09:13.555Z,99.99
2019-02-10T03:09:53.957Z,99.99
2019-02-10T03:10:34.530Z,99.99
2019-02-10T03:11:14.815Z,99.99
2019-02-10T03:11:55.380Z,99.99
2019-02-10T03:12:37.564Z,99.99
2019-02-10T03:13:19.970Z,99.99
2019-02-10T03:14:01.436Z,99.99
2019-02-10T03:14:43.546Z,99.99
2019-02-10T03:15:26.058Z,99.99
2019-02-10T03:16:12.150Z,99.99
2019-02-10T03:16:53.102Z,99.99
2019-02-10T03:17:34.305Z,99.99
2019-02-10T03:18:15.183Z,99.99
2019-02-10T03:18:57.322Z,99.99
2019-02-10T03:19:40.267Z,99.99
2019-02-10T03:20:26.122Z,99.99
2019-02-10T03:21:12.407Z,99.99
2019-02-10T03:21:52.764Z,99.99
2019-02-10T03:22:35.412Z,99.99
2019-02-10T03:23:18.942Z,99.99
2019-02-10T03:23:59.310Z,99.99
2019-02-10T03:24:41.716Z,99.99
2019-02-10T03:25:22.282Z,99.99
2019-02-10T03:26:02.625Z,99.99
2019-02-10T03:26:43.574Z,99.99
2019-02-10T03:27:26.066Z,99.99
2019-02-10T03:28:06.444Z,99.99
2019-02-10T03:32:39.197Z,99.99
2019-02-10T03:33:24.340Z,99.99
2019-02-10T03:34:05.181Z,99.99
2019-02-10T03:34:46.699Z,99.99
2019-02-10T03:35:26.832Z,99.99
2019-02-10T03:36:07.805Z,99.99
2019-02-10T03:36:48.697Z,99.99
2019-02-10T03:37:29.723Z,99.99
2019-02-10T03:38:10.784Z,99.99
2019-02-10T03:38:51.125Z,99.99
2019-02-10T03:39:31.726Z,99.99
2019-02-10T03:40:12.613Z,99.99
2019-02-10T03:40:53.092Z,99.99
2019-02-10T03:41:33.319Z,99.99
2019-02-10T03:42:14.676Z,99.99
2019-02-10T03:42:55.339Z,99.99
2019-02-10T03:43:35.793Z,99.99
2019-02-10T03:44:16.310Z,99.99
2019-02-10T03:44:57.850Z,99.99
2019-02-10T03:45:38.946Z,99.99
2019-02-10T03:46:19.428Z,99.99
2019-02-10T03:47:00.279Z,99.99
2019-02-10T03:47:41.906Z,99.99
2019-02-10T03:48:22.659Z,99.99
2019-02-10T03:49:03.239Z,99.99
2019-02-10T03:49:44.060Z,99.99
2019-02-10T03:50:24.514Z,99.99
2019-02-10T03:51:05.771Z,99.99
2019-02-10T03:51:46.307Z,99.99
2019-02-10T03:52:28.144Z,99.99
2019-02-10T03:53:09.250Z,99.99
2019-02-10T03:53:50.631Z,99.99
2019-02-10T03:54:32.088Z,99.99
2019-02-10T03:55:12.339Z,99.99
2019-02-10T03:55:52.958Z,99.99
2019-02-10T03:56:33.551Z,99.99
2019-02-10T03:57:15.905Z,99.99
2019-02-10T03:57:56.328Z,99.99
2019-02-10T03:58:36.946Z,99.99
2019-02-10T03:59:17.718Z,99.99
2019-02-10T03:59:59.168Z,99.99
2019-02-10T04:00:40.161Z,99.99
2019-02-10T04:01:20.554Z,99.99
2019-02-10T04:02:01.891Z,99.99
2019-02-10T04:02:42.326Z,99.99
2019-02-10T04:03:23.689Z,99.99
2019-02-10T04:04:05.885Z,99.99
2019-02-10T04:04:47.196Z,99.99
2019-02-10T04:05:27.382Z,99.99
2019-02-10T04:06:08.379Z,99.99
2019-02-10T04:06:50.084Z,99.99
2019-02-10T04:07:36.027Z,99.99
2019-02-10T04:08:13.760Z,99.99
2019-02-10T04:08:55.418Z,99.99
2019-02-10T04:09:35.698Z,99.99
2019-02-10T04:10:17.777Z,99.99
2019-02-10T04:10:59.256Z,99.99
2019-02-10T04:11:40.768Z,99.99
2019-02-10T04:12:21.139Z,99.99
2019-02-10T04:13:01.636Z,99.99
2019-02-10T04:13:42.390Z,99.99
2019-02-10T04:14:22.862Z,99.99
2019-02-10T04:15:04.440Z,99.99
2019-02-10T04:15:45.259Z,99.99
2019-02-10T04:16:25.792Z,99.99
2019-02-10T04:17:07.289Z,99.99
2019-02-10T04:17:47.844Z,99.99
2019-02-10T04:18:28.855Z,99.99
2019-02-10T04:19:09.312Z,99.99
2019-02-10T04:19:50.980Z,99.99
2019-02-10T04:20:31.624Z,99.99
2019-02-10T04:22:57.786Z,99.99
2019-02-10T04:23:54.181Z,99.99
2019-02-10T04:28:03.693Z,99.99
2019-02-10T05:09:25.193Z,99.99
2019-02-10T05:10:16.115Z,99.99
2019-02-10T05:11:07.584Z,99.99
2019-02-10T05:14:40.153Z,99.99
2019-02-10T05:15:28.115Z,99.99
2019-02-10T05:17:52.275Z,99.99
2019-02-10T05:18:34.641Z,99.99
2019-02-10T05:19:19.367Z,99.99
2019-02-10T05:20:02.107Z,99.99
2019-02-10T05:20:44.411Z,99.99
2019-02-10T05:21:30.392Z,99.99
2019-02-10T05:22:11.583Z,99.99
2019-02-10T05:22:55.564Z,99.99
2019-02-10T05:23:43.846Z,99.99
2019-02-10T05:24:27.377Z,99.99
2019-02-10T05:25:11.302Z,99.99
2019-02-10T05:25:51.712Z,99.99
2019-02-10T05:26:51.552Z,99.99
2019-02-10T05:27:31.958Z,99.99
2019-02-10T05:28:12.960Z,99.99
2019-02-10T05:28:55.065Z,99.99
2019-02-10T05:29:35.511Z,99.99
2019-02-10T05:30:19.567Z,99.99
2019-02-10T05:31:02.472Z,99.99
2019-02-10T05:31:46.683Z,99.99
2019-02-10T05:32:30.545Z,99.99
2019-02-10T05:33:12.201Z,99.99
2019-02-10T05:33:52.776Z,99.99
2019-02-10T05:34:33.114Z,99.99
2019-02-10T05:35:13.481Z,99.99
2019-02-10T05:35:53.876Z,99.99
2019-02-10T05:36:34.256Z,99.99
2019-02-10T05:37:14.823Z,99.99
2019-02-10T05:38:03.471Z,99.99
2019-02-10T05:38:39.891Z,99.99
2019-02-10T05:39:21.186Z,99.99
2019-02-10T05:40:07.271Z,99.99
2019-02-10T05:40:47.958Z,99.99
2019-02-10T05:41:28.237Z,99.99
2019-02-10T05:42:11.041Z,99.99
2019-02-10T05:42:51.458Z,99.99
2019-02-10T05:43:36.250Z,99.99
2019-02-10T05:44:16.898Z,99.99
2019-02-10T05:45:00.096Z,99.99
2019-02-10T05:45:43.521Z,99.99
2019-02-10T05:46:24.146Z,99.99
2019-02-10T05:47:04.689Z,99.99
2019-02-10T05:47:46.725Z,99.99
2019-02-10T05:48:28.914Z,99.99
2019-02-10T05:49:11.335Z,99.99
2019-02-10T05:49:55.545Z,99.99
2019-02-10T05:50:39.860Z,99.99
2019-02-10T05:51:22.143Z,99.99
2019-02-10T05:52:04.531Z,99.99
2019-02-10T05:52:45.847Z,99.99
2019-02-10T05:53:27.070Z,99.99
2019-02-10T05:54:07.424Z,99.99
2019-02-10T05:54:47.995Z,99.99
2019-02-10T05:55:29.190Z,99.99
2019-02-10T05:56:09.691Z,99.99
2019-02-10T05:56:54.424Z,99.99
2019-02-10T05:57:34.577Z,99.99
2019-02-10T05:58:15.438Z,99.99
2019-02-10T05:58:57.730Z,99.99
2019-02-10T05:59:41.593Z,99.99
2019-02-10T06:00:23.777Z,99.99
2019-02-10T06:01:06.003Z,99.99
2019-02-10T06:01:46.419Z,99.99
2019-02-10T06:02:26.989Z,99.99
2019-02-10T06:03:09.316Z,99.99
2019-02-10T06:03:49.738Z,99.99
2019-02-10T06:04:32.066Z,99.99
2019-02-10T06:05:12.525Z,99.99
2019-02-10T06:06:11.920Z,99.99
2019-02-10T06:06:56.223Z,99.99
2019-02-10T06:07:36.560Z,99.99
2019-02-10T06:08:24.174Z,99.99
2019-02-10T06:09:04.680Z,99.99
2019-02-10T06:09:46.052Z,99.99
2019-02-10T06:10:29.069Z,99.99
2019-02-10T06:11:09.496Z,99.99
2019-02-10T06:11:53.286Z,99.99
2019-02-10T06:12:37.242Z,99.99
2019-02-10T06:13:18.837Z,99.99
2019-02-10T06:13:59.222Z,99.99
2019-02-10T06:14:40.561Z,99.99
2019-02-10T06:15:22.136Z,99.99
2019-02-10T06:16:06.807Z,99.99
2019-02-10T06:16:46.990Z,99.99
2019-02-10T06:17:27.943Z,99.99
2019-02-10T06:18:11.418Z,99.99
2019-02-10T06:18:53.067Z,99.99
2019-02-10T06:19:35.622Z,99.99
2019-02-10T06:20:16.620Z,99.99
2019-02-10T06:20:59.140Z,99.99
2019-02-10T06:21:40.720Z,99.99
2019-02-10T06:22:21.812Z,99.99
2019-02-10T06:23:02.333Z,99.99
2019-02-10T06:23:42.593Z,99.99
2019-02-10T06:24:25.722Z,99.99
2019-02-10T06:25:08.708Z,99.99
2019-02-10T06:25:51.747Z,99.99
2019-02-10T06:26:31.814Z,99.99
2019-02-10T06:27:13.114Z,99.99
2019-02-10T06:27:54.481Z,99.99
2019-02-10T06:28:36.762Z,99.99
2019-02-10T06:29:18.698Z,99.99
2019-02-10T06:30:01.380Z,99.99
2019-02-10T06:30:41.536Z,99.99
2019-02-10T06:31:21.934Z,99.99
2019-02-10T06:32:02.321Z,99.99
2019-02-10T06:32:42.801Z,99.99
2019-02-10T06:33:25.149Z,99.99
2019-02-10T06:34:08.333Z,99.99
2019-02-10T06:34:48.728Z,99.99
2019-02-10T06:35:32.061Z,99.99
2019-02-10T06:36:14.319Z,99.99
2019-02-10T06:36:54.881Z,99.99
2019-02-10T06:37:36.945Z,99.99
2019-02-10T06:38:22.368Z,99.99
2019-02-10T06:39:00.468Z,99.99
2019-02-10T06:39:41.756Z,99.99
2019-02-10T06:40:24.485Z,99.99
2019-02-10T06:41:05.527Z,99.99
2019-02-10T06:41:45.917Z,99.99
2019-02-10T06:42:26.382Z,99.99
2019-02-10T06:43:10.067Z,99.99
2019-02-10T06:43:53.087Z,99.99
2019-02-10T06:44:35.365Z,99.99
2019-02-10T06:45:15.892Z,99.99
2019-02-10T06:46:00.281Z,99.99
2019-02-10T06:46:40.658Z,99.99
2019-02-10T06:47:21.037Z,99.99
2019-02-10T06:48:01.478Z,99.99
2019-02-10T06:48:44.032Z,99.99
2019-02-10T06:49:24.417Z,99.99
2019-02-10T06:50:05.751Z,99.99
2019-02-10T06:50:48.210Z,99.99
2019-02-10T06:51:28.509Z,99.99
2019-02-10T06:52:08.954Z,99.99
2019-02-10T06:52:49.495Z,99.99
2019-02-10T06:53:34.779Z,99.99
2019-02-10T06:54:14.090Z,99.99
2019-02-10T06:55:00.562Z,99.99
2019-02-10T06:55:42.127Z,99.99
2019-02-10T06:56:26.068Z,99.99
2019-02-10T06:57:09.444Z,99.99
2019-02-10T06:57:49.523Z,99.99
2019-02-10T06:58:29.860Z,99.99
2019-02-10T06:59:10.281Z,99.99
2019-02-10T06:59:53.646Z,99.99
2019-02-10T07:00:34.755Z,99.99
2019-02-10T07:01:16.146Z,99.99
2019-02-10T07:01:56.709Z,99.99
2019-02-10T07:02:37.414Z,99.99
2019-02-10T07:03:21.242Z,99.99
2019-02-10T07:04:02.069Z,99.99
2019-02-10T07:07:13.503Z,99.99
2019-02-10T07:09:15.881Z,99.99
2019-02-10T07:10:02.775Z,99.99
2019-02-10T07:10:43.272Z,99.99
2019-02-10T07:11:27.243Z,99.99
2019-02-10T07:12:09.711Z,99.99
2019-02-10T07:12:52.931Z,99.99
2019-02-10T07:13:41.241Z,99.99
2019-02-10T07:14:23.738Z,99.99
2019-02-10T07:15:06.271Z,99.99
2019-02-10T07:15:47.790Z,99.99
2019-02-10T07:16:33.705Z,99.84
2019-02-10T07:17:14.227Z,99.99
2019-02-10T07:17:54.722Z,99.55
2019-02-10T07:18:37.806Z,99.99
2019-02-10T07:19:19.250Z,99.99
2019-02-10T07:20:02.711Z,99.84
2019-02-10T07:20:44.847Z,98.99
2019-02-10T07:21:28.851Z,98.79
2019-02-10T07:22:14.764Z,98.51
2019-02-10T07:23:04.088Z,97.89
2019-02-10T07:23:57.114Z,98.36
2019-02-10T07:24:38.542Z,98.18
2019-02-10T07:25:25.090Z,97.7
2019-02-10T07:26:06.329Z,98.08
2019-02-10T07:26:50.387Z,98.36
2019-02-10T07:27:32.831Z,97.8
2019-02-10T07:28:14.917Z,97.8
2019-02-10T07:28:56.549Z,98.36
2019-02-10T07:29:39.834Z,98.7
2019-02-10T07:30:24.023Z,98.51
2019-02-10T07:31:13.960Z,98.65
2019-02-10T07:31:58.539Z,98.36
2019-02-10T07:32:45.089Z,98.56
2019-02-10T07:33:33.534Z,98.36
2019-02-10T07:34:13.908Z,98.46
2019-02-10T07:34:57.161Z,97.61
2019-02-10T07:35:39.394Z,96.75
2019-02-10T07:36:21.689Z,98.08
2019-02-10T07:37:07.780Z,97.41
2019-02-10T07:37:50.796Z,97.61
2019-02-10T07:38:38.598Z,97.7
2019-02-10T07:39:18.882Z,97.51
2019-02-10T07:40:02.165Z,97.89
2019-02-10T07:40:46.383Z,98.85
2019-02-10T07:41:30.714Z,99.04
2019-02-10T07:42:19.707Z,98.75
2019-02-10T07:43:02.268Z,98.56
2019-02-10T07:50:21.312Z,98.56
2019-02-10T07:51:03.802Z,98.85
2019-02-10T07:51:51.676Z,99.04
2019-02-10T07:52:33.044Z,99.04
2019-02-10T07:53:13.388Z,99.13
2019-02-10T07:53:54.572Z,99.99
2019-02-10T07:54:42.058Z,99.8
2019-02-10T07:55:15.460Z,99.6
2019-02-10T07:55:55.999Z,99.99
2019-02-10T07:56:37.765Z,99.99
2019-02-10T07:57:18.248Z,99.99
2019-02-10T07:58:03.251Z,99.99
2019-02-10T07:58:45.810Z,99.7
2019-02-10T07:59:27.326Z,99.6
2019-02-10T08:01:27.384Z,99.6
2019-02-10T08:02:12.558Z,99.04
2019-02-10T08:02:55.051Z,99.22
2019-02-10T08:03:42.475Z,99.22
2019-02-10T08:04:26.524Z,99.32
2019-02-10T08:05:09.200Z,99.22
2019-02-10T08:05:50.465Z,99.32
2019-02-10T08:06:35.120Z,99.32
2019-02-10T08:07:18.237Z,99.04
2019-02-10T08:08:02.059Z,99.08
2019-02-10T08:08:46.543Z,98.65
2019-02-10T08:09:26.536Z,98.56
2019-02-10T08:10:07.993Z,98.65
2019-02-10T08:10:52.404Z,98.75
2019-02-10T08:11:34.433Z,98.65
2019-02-10T08:12:16.414Z,99.04
2019-02-10T08:14:15.938Z,99.46
2019-02-10T08:14:57.016Z,98.61
2019-02-10T08:15:43.022Z,98.75
2019-02-10T08:16:32.036Z,98.18
2019-02-10T08:17:15.530Z,98.61
2019-02-10T08:17:58.085Z,98.85
2019-02-10T08:18:39.511Z,98.65
2019-02-10T08:19:23.803Z,98.7
2019-02-10T08:20:04.194Z,98.32
2019-02-10T08:22:20.110Z,97.56
2019-02-10T08:23:11.981Z,97.94
2019-02-10T08:23:52.982Z,98.8
2019-02-10T08:24:36.007Z,98.7
2019-02-10T08:25:30.851Z,98.22
2019-02-10T08:26:11.343Z,98.61
2019-02-10T08:26:52.725Z,98.61
2019-02-10T08:27:35.657Z,98.51
2019-02-10T08:28:18.812Z,97.85
2019-02-10T08:29:00.969Z,98.8
2019-02-10T08:29:42.740Z,98.32
2019-02-10T08:30:23.133Z,98.13
2019-02-10T08:31:05.120Z,97.94
2019-02-10T08:31:45.687Z,98.13
2019-02-10T08:32:26.145Z,98.61
2019-02-10T08:33:09.236Z,98.51
2019-02-10T08:33:50.710Z,98.32
2019-02-10T08:34:36.096Z,98.42
2019-02-10T08:35:17.637Z,98.51
2019-02-10T08:35:58.407Z,97.66
2019-02-10T08:36:38.825Z,97.56
2019-02-10T08:37:20.419Z,97.85
2019-02-10T08:38:03.368Z,98.13
2019-02-10T08:38:44.736Z,97.66
2019-02-10T08:39:26.028Z,97.66
2019-02-10T08:40:06.996Z,96.7
2019-02-10T08:40:47.657Z,96.7
2019-02-10T08:41:28.126Z,96.32
2019-02-10T08:42:08.697Z,96.03
2019-02-10T08:42:49.422Z,96.7
2019-02-10T08:43:29.834Z,97.08
2019-02-10T08:44:11.062Z,96.7
2019-02-10T08:44:51.868Z,97.27
2019-02-10T08:45:32.582Z,97.17
2019-02-10T08:46:15.880Z,97.17
2019-02-10T08:46:56.710Z,96.89
2019-02-10T08:47:37.636Z,96.7
2019-02-10T08:48:18.594Z,97.94
2019-02-10T08:49:00.015Z,97.27
2019-02-10T08:49:43.985Z,97.46
2019-02-10T08:50:25.277Z,96.8
2019-02-10T09:01:17.202Z,99.99
2019-02-10T09:03:57.418Z,99.99
2019-02-10T09:04:38.485Z,99.99
2019-02-10T09:05:24.531Z,99.99
2019-02-10T09:06:05.881Z,99.99
2019-02-10T09:06:48.294Z,99.99
2019-02-10T09:07:30.594Z,99.99
2019-02-10T09:08:15.083Z,99.99
2019-02-10T09:09:02.537Z,99.99
2019-02-10T09:09:42.209Z,99.99
2019-02-10T09:10:22.646Z,99.99
2019-02-10T09:11:04.024Z,99.99
2019-02-10T09:11:46.134Z,99.99
2019-02-10T09:12:29.680Z,99.99
2019-02-10T09:13:10.045Z,99.95
2019-02-10T09:13:54.113Z,99.99
2019-02-10T09:14:34.584Z,99.99
2019-02-10T09:15:15.740Z,99.99
2019-02-10T09:15:58.560Z,99.99
2019-02-10T09:16:41.761Z,99.99
2019-02-10T09:17:24.888Z,99.99
2019-02-10T09:18:07.154Z,99.99
2019-02-10T09:18:49.562Z,99.99
2019-02-10T09:19:29.735Z,99.99
2019-02-10T09:20:13.630Z,99.99
2019-02-10T09:20:59.638Z,99.66
2019-02-10T09:21:42.573Z,99.85
2019-02-10T09:22:24.876Z,99.99
2019-02-10T09:23:07.463Z,99.95
2019-02-10T09:23:47.813Z,99.99
2019-02-10T09:24:32.073Z,99.99
2019-02-10T09:25:14.515Z,99.08
2019-02-10T09:25:54.919Z,99.27
2019-02-10T09:26:40.762Z,99.99
2019-02-10T09:27:23.204Z,99.99
2019-02-10T09:28:05.224Z,99.99
2019-02-10T09:28:47.865Z,99.99
2019-02-10T09:29:30.088Z,99.99
2019-02-10T09:30:11.875Z,99.99
2019-02-10T09:30:53.739Z,99.99
2019-02-10T09:31:36.910Z,99.99
2019-02-10T09:36:54.532Z,99.99
2019-02-10T09:39:23.805Z,99.99
2019-02-10T09:43:13.348Z,99.99
2019-02-10T09:43:54.910Z,99.99
2019-02-10T09:44:37.109Z,99.99
2019-02-10T09:45:16.766Z,99.99
2019-02-10T09:45:57.169Z,99.99
2019-02-10T09:46:37.849Z,99.99
2019-02-10T09:47:21.237Z,99.99
2019-02-10T09:48:03.077Z,99.99
2019-02-10T09:48:45.464Z,99.99
2019-02-10T09:49:27.994Z,99.75
2019-02-10T09:50:11.252Z,99.99
2019-02-10T09:50:52.328Z,99.99
2019-02-10T09:51:36.690Z,99.99
2019-02-10T09:52:17.157Z,99.99
2019-02-10T09:52:57.809Z,99.99
2019-02-10T09:53:40.159Z,99.99
2019-02-10T09:54:20.608Z,99.99
2019-02-10T09:55:02.557Z,99.75
2019-02-10T09:55:44.702Z,99.99
2019-02-10T09:56:25.181Z,99.37
2019-02-10T09:57:07.660Z,99.66
2019-02-10T09:57:55.943Z,99.95
2019-02-10T09:58:36.584Z,99.95
2019-02-10T09:59:19.735Z,98.9
2019-02-10T10:00:02.055Z,99.85
2019-02-10T10:00:43.948Z,99.99
2019-02-10T10:01:25.142Z,99.99
2019-02-10T10:02:05.625Z,99.99
2019-02-10T10:02:46.101Z,99.99
2019-02-10T10:03:29.054Z,99.99
2019-02-10T10:04:09.442Z,99.99
2019-02-10T10:04:51.897Z,99.99
2019-02-10T10:05:34.118Z,99.99
2019-02-10T10:06:16.389Z,99.99
2019-02-10T10:06:58.625Z,99.99
2019-02-10T10:07:41.986Z,99.99
2019-02-10T10:08:22.391Z,99.99
2019-02-10T10:09:05.651Z,99.99
2019-02-10T10:09:52.487Z,99.99
2019-02-10T10:10:34.536Z,99.99
2019-02-10T10:11:17.047Z,99.99
2019-02-10T10:11:57.806Z,99.99
2019-02-10T10:12:40.247Z,99.99
2019-02-10T10:13:20.622Z,99.99
2019-02-10T10:14:03.478Z,99.99
2019-02-10T10:14:47.460Z,99.99
2019-02-10T10:15:27.899Z,99.99
2019-02-10T10:16:08.371Z,99.99
2019-02-10T10:16:48.957Z,99.99
2019-02-10T10:17:32.147Z,99.99
2019-02-10T10:18:17.055Z,99.99
2019-02-10T10:18:57.534Z,99.95
2019-02-10T10:19:39.941Z,99.99
2019-02-10T10:21:42.081Z,99.99
2019-02-10T10:22:24.012Z,99.99
2019-02-10T10:23:07.537Z,99.99
2019-02-10T10:23:48.196Z,99.99
2019-02-10T10:24:32.009Z,99.99
2019-02-10T10:25:13.918Z,99.99
2019-02-10T10:25:54.392Z,99.99
2019-02-10T10:26:34.986Z,99.99
2019-02-10T10:27:16.378Z,99.99
2019-02-10T10:27:56.906Z,99.95
2019-02-10T10:28:40.322Z,99.99
2019-02-10T11:11:26.892Z,99.99
2019-02-10T11:12:11.604Z,99.99
2019-02-10T11:12:53.529Z,99.99
2019-02-10T11:13:33.986Z,99.99
2019-02-10T11:14:16.381Z,99.99
2019-02-10T11:14:58.685Z,99.99
2019-02-10T11:15:41.083Z,99.99
2019-02-10T11:16:27.474Z,99.99
2019-02-10T11:17:11.750Z,99.99
2019-02-10T11:17:52.135Z,99.99
2019-02-10T11:18:39.153Z,99.99
2019-02-10T11:19:19.708Z,99.99
2019-02-10T11:20:00.605Z,99.99
2019-02-10T11:20:40.656Z,99.99
2019-02-10T11:21:21.200Z,99.99
2019-02-10T11:22:01.644Z,99.99
2019-02-10T11:22:42.100Z,99.99
2019-02-10T11:23:22.509Z,99.99
2019-02-10T11:24:04.980Z,99.99
2019-02-10T11:24:45.821Z,99.99
2019-02-10T11:25:26.249Z,99.99
2019-02-10T11:26:06.775Z,99.99
2019-02-10T11:26:49.043Z,99.99
2019-02-10T11:27:29.231Z,99.99
2019-02-10T11:28:09.591Z,99.99
2019-02-10T11:28:53.590Z,99.99
2019-02-10T11:29:34.045Z,99.99
2019-02-10T11:30:18.043Z,99.99
2019-02-10T11:30:58.419Z,99.99
2019-02-10T11:31:38.927Z,99.99
2019-02-10T11:32:20.308Z,99.99
2019-02-10T11:33:03.611Z,99.99
2019-02-10T11:33:45.616Z,99.99
2019-02-10T11:34:26.075Z,99.99
2019-02-10T11:35:06.789Z,99.99
2019-02-10T11:35:50.626Z,99.99
2019-02-10T11:36:31.062Z,99.99
2019-02-10T11:37:11.511Z,99.99
2019-02-10T11:37:51.955Z,99.99
2019-02-10T11:38:35.245Z,99.99
2019-02-10T11:39:22.446Z,99.99
2019-02-10T11:40:02.873Z,99.99
2019-02-10T11:40:44.446Z,99.99
2019-02-10T11:41:24.914Z,99.99
2019-02-10T11:42:05.297Z,99.99
2019-02-10T11:42:47.717Z,99.99
2019-02-10T11:43:29.039Z,99.99
2019-02-10T11:44:09.661Z,99.99
2019-02-10T11:44:50.298Z,99.99
2019-02-10T11:45:30.687Z,99.99
2019-02-10T11:46:11.233Z,99.99
2019-02-10T11:46:53.297Z,99.99
2019-02-10T11:47:36.429Z,99.99
2019-02-10T11:48:18.432Z,99.99
2019-02-10T11:48:58.951Z,99.99
2019-02-10T11:49:39.605Z,99.99
2019-02-10T11:50:21.004Z,99.99
2019-02-10T11:51:01.381Z,99.99
2019-02-10T11:51:42.766Z,99.99
2019-02-10T11:52:23.510Z,99.99
2019-02-10T11:53:03.870Z,99.99
2019-02-10T11:53:44.712Z,99.99
2019-02-10T11:54:25.906Z,99.99
2019-02-10T11:55:06.312Z,99.99
2019-02-10T11:55:46.730Z,99.99
2019-02-10T11:56:28.019Z,99.99
2019-02-10T11:57:08.692Z,99.99
2019-02-10T11:57:49.354Z,99.99
2019-02-10T11:58:29.569Z,99.99
2019-02-10T11:59:09.862Z,99.99
2019-02-10T11:59:51.830Z,99.99
2019-02-10T12:00:32.278Z,99.99
2019-02-10T12:01:14.667Z,99.99
2019-02-10T12:01:55.067Z,99.99
2019-02-10T12:03:44.272Z,99.99
2019-02-10T12:04:26.019Z,99.99
2019-02-10T12:05:06.281Z,99.99
2019-02-10T12:05:46.844Z,99.99
2019-02-10T12:06:27.365Z,99.99
2019-02-10T12:07:09.441Z,99.99
2019-02-10T12:07:49.832Z,99.99
2019-02-10T12:08:35.518Z,99.99
2019-02-10T12:09:12.583Z,99.99
2019-02-10T12:09:52.994Z,99.99
2019-02-10T12:10:33.458Z,99.99
2019-02-10T12:11:15.788Z,99.99
2019-02-10T12:11:56.238Z,99.99
2019-02-10T12:12:36.656Z,99.99
2019-02-10T12:13:17.119Z,99.99
2019-02-10T12:14:01.297Z,99.99
2019-02-10T12:14:45.444Z,99.99
2019-02-10T12:15:28.493Z,99.99
2019-02-10T12:16:10.763Z,99.99
2019-02-10T12:16:55.680Z,99.99
2019-02-10T12:20:44.452Z,99.99
2019-02-10T12:21:26.236Z,99.99
2019-02-10T12:22:07.601Z,99.99
2019-02-10T12:22:50.067Z,99.99
2019-02-10T12:23:28.538Z,99.99
2019-02-10T12:24:10.840Z,99.99
2019-02-10T12:24:51.192Z,99.99
2019-02-10T12:25:31.773Z,99.99
2019-02-10T12:26:13.025Z,99.99
2019-02-10T12:27:00.920Z,99.99
2019-02-10T12:27:42.914Z,99.99
2019-02-10T12:28:24.246Z,99.99
2019-02-10T12:29:04.613Z,99.99
2019-02-10T12:29:45.052Z,99.99
2019-02-10T12:30:29.398Z,99.99
2019-02-10T12:31:12.497Z,99.99
2019-02-10T12:31:55.762Z,99.99
2019-02-10T12:32:36.311Z,99.99